Time;durP1;ratioP1;P1;durP2;ratioP2;P2;SDS_P1;SDS_P2;PMS_P1;PMS_P2;Temp;Humidity;BMP_temperature;BMP_pressure;BME280_temperature;BME280_humidity;BME280_pressure;Samples;Min_cycle;Max_cycle;Signal;HPM_P1;HPM_P2
2022/07/16 00:03:20;;;;;;;3.40;1.75;;;;;;;;;;5010596;28;20029;-73
2022/07/16 00:05:45;;;;;;;2.83;1.77;;;;;;;;;;5010474;28;20598;-73
2022/07/16 00:08:11;;;;;;;3.92;1.95;;;;;;;;;;5010052;28;20036;-72
2022/07/16 00:10:36;;;;;;;3.42;1.83;;;;;;;;;;5010208;28;20030;-73
2022/07/16 00:13:02;;;;;;;3.55;1.90;;;;;;;;;;5004804;28;20030;-72
2022/07/16 00:15:31;;;;;;;2.83;1.90;;;;;;;;;;5009798;28;20383;-73
2022/07/16 00:20:41;;;;;;;2.80;1.80;;;;;;;;;;5010714;28;20100;-74
2022/07/16 00:23:07;;;;;;;3.97;1.80;;;;;;;;;;5008422;28;20034;-73
2022/07/16 00:25:35;;;;;;;3.05;2.00;;;;;;;;;;5005456;28;20444;-73
2022/07/16 00:28:02;;;;;;;4.53;1.80;;;;;;;;;;5007229;28;20375;-73
2022/07/16 00:30:28;;;;;;;3.50;1.70;;;;;;;;;;5006288;28;20494;-72
2022/07/16 00:32:53;;;;;;;3.35;1.63;;;;;;;;;;5009440;28;20033;-73
2022/07/16 00:35:18;;;;;;;3.67;1.60;;;;;;;;;;5009543;28;20031;-72
2022/07/16 00:37:44;;;;;;;3.10;1.63;;;;;;;;;;5006176;28;20107;-73
2022/07/16 00:40:09;;;;;;;3.25;1.60;;;;;;;;;;5009196;28;20125;-73
2022/07/16 00:42:35;;;;;;;2.88;1.60;;;;;;;;;;5005082;28;20080;-72
2022/07/16 00:45:00;;;;;;;3.45;1.42;;;;;;;;;;5009615;28;20022;-73
2022/07/16 00:47:25;;;;;;;3.20;1.70;;;;;;;;;;5010615;28;20029;-73
2022/07/16 00:49:51;;;;;;;3.03;1.67;;;;;;;;;;5007768;28;20026;-72
2022/07/16 00:52:16;;;;;;;3.15;1.60;;;;;;;;;;5003221;28;20025;-73
2022/07/16 00:54:41;;;;;;;3.58;1.60;;;;;;;;;;5012294;28;20693;-73
2022/07/16 00:57:07;;;;;;;3.00;1.60;;;;;;;;;;5006325;28;20025;-73
2022/07/16 00:59:32;;;;;;;2.85;1.70;;;;;;;;;;5004659;28;20036;-73
2022/07/16 01:01:58;;;;;;;3.92;1.58;;;;;;;;;;5005875;28;20044;-74
2022/07/16 01:04:24;;;;;;;3.08;1.80;;;;;;;;;;5009684;28;20549;-72
2022/07/16 01:06:50;;;;;;;3.30;1.65;;;;;;;;;;5007803;28;20043;-72
2022/07/16 01:09:16;;;;;;;3.92;2.00;;;;;;;;;;5008418;28;20568;-73
2022/07/16 01:11:46;;;;;;;2.80;1.90;;;;;;;;;;5006536;28;20029;-72
2022/07/16 01:14:13;;;;;;;4.13;1.98;;;;;;;;;;5008138;28;20450;-73
2022/07/16 01:16:38;;;;;;;3.00;1.67;;;;;;;;;;5011033;28;20531;-72
2022/07/16 01:19:05;;;;;;;3.10;2.00;;;;;;;;;;5005270;28;20030;-73
2022/07/16 01:21:30;;;;;;;2.92;1.75;;;;;;;;;;5003983;28;21754;-72
2022/07/16 01:23:55;;;;;;;4.20;1.90;;;;;;;;;;5003075;28;20022;-72
2022/07/16 01:26:21;;;;;;;2.78;1.60;;;;;;;;;;5003574;28;20086;-73
2022/07/16 01:28:46;;;;;;;3.03;1.70;;;;;;;;;;5002905;28;20029;-73
2022/07/16 01:31:14;;;;;;;2.70;1.75;;;;;;;;;;5002921;28;20034;-73
2022/07/16 01:33:41;;;;;;;3.67;1.80;;;;;;;;;;5002551;28;20050;-72
2022/07/16 01:36:09;;;;;;;4.22;2.08;;;;;;;;;;5004989;28;20022;-72
2022/07/16 01:38:39;;;;;;;3.50;2.03;;;;;;;;;;5001632;28;20037;-73
2022/07/16 01:41:05;;;;;;;2.80;1.80;;;;;;;;;;5001132;28;20026;-74
2022/07/16 01:43:30;;;;;;;3.05;1.90;;;;;;;;;;5001506;28;20034;-73
2022/07/16 01:45:57;;;;;;;4.78;2.08;;;;;;;;;;5004898;28;20033;-73
2022/07/16 01:48:23;;;;;;;3.92;1.98;;;;;;;;;;5004453;28;20029;-74
2022/07/16 01:50:49;;;;;;;3.25;1.67;;;;;;;;;;5002842;28;20036;-74
2022/07/16 01:53:15;;;;;;;4.50;1.88;;;;;;;;;;5001313;28;20034;-73
2022/07/16 01:55:41;;;;;;;4.57;1.77;;;;;;;;;;4998280;28;20454;-74
2022/07/16 01:58:08;;;;;;;2.72;1.88;;;;;;;;;;5002101;28;20021;-73
2022/07/16 02:00:35;;;;;;;3.55;1.90;;;;;;;;;;5003130;28;20034;-72
2022/07/16 02:03:00;;;;;;;4.45;2.05;;;;;;;;;;5000457;28;20402;-72
2022/07/16 02:05:26;;;;;;;5.53;2.63;;;;;;;;;;5002865;28;20038;-74
2022/07/16 02:07:52;;;;;;;3.40;2.03;;;;;;;;;;4998131;28;20026;-73
2022/07/16 02:10:17;;;;;;;4.20;1.92;;;;;;;;;;5005219;28;20084;-73
2022/07/16 02:12:43;;;;;;;4.75;2.08;;;;;;;;;;5000985;28;20099;-73
2022/07/16 02:15:09;;;;;;;3.30;2.05;;;;;;;;;;5001456;28;20505;-72
2022/07/16 02:17:35;;;;;;;6.70;1.92;;;;;;;;;;5002871;28;20030;-73
2022/07/16 02:20:03;;;;;;;2.95;1.90;;;;;;;;;;5001386;28;20037;-73
2022/07/16 02:22:28;;;;;;;3.60;1.83;;;;;;;;;;5001268;28;20028;-73
2022/07/16 02:24:54;;;;;;;3.65;1.80;;;;;;;;;;5001842;28;20030;-73
2022/07/16 02:27:19;;;;;;;2.53;1.85;;;;;;;;;;4996904;28;20513;-73
2022/07/16 02:29:44;;;;;;;5.53;2.17;;;;;;;;;;5002789;28;20127;-74
2022/07/16 02:32:10;;;;;;;4.38;2.00;;;;;;;;;;4999783;28;20026;-74
2022/07/16 02:34:35;;;;;;;5.60;2.38;;;;;;;;;;4999363;28;20045;-74
2022/07/16 02:37:01;;;;;;;4.38;2.00;;;;;;;;;;4998680;28;20111;-73
2022/07/16 02:39:26;;;;;;;4.03;2.28;;;;;;;;;;5001482;28;20474;-73
2022/07/16 02:41:51;;;;;;;4.93;2.35;;;;;;;;;;4996095;28;20415;-74
2022/07/16 02:44:18;;;;;;;3.55;2.20;;;;;;;;;;5002861;28;20064;-73
2022/07/16 02:46:43;;;;;;;2.97;2.20;;;;;;;;;;5000465;28;20026;-72
2022/07/16 02:49:09;;;;;;;3.78;1.80;;;;;;;;;;5003351;28;20394;-73
2022/07/16 02:51:34;;;;;;;3.53;2.30;;;;;;;;;;5008062;28;20407;-73
2022/07/16 02:53:59;;;;;;;3.95;2.22;;;;;;;;;;5008140;28;20053;-74
2022/07/16 02:56:25;;;;;;;3.78;2.30;;;;;;;;;;5005847;28;20026;-73
2022/07/16 02:58:50;;;;;;;3.13;2.28;;;;;;;;;;5010830;28;20028;-74
2022/07/16 03:01:15;;;;;;;4.57;2.53;;;;;;;;;;5009398;28;20398;-74
2022/07/16 03:03:41;;;;;;;4.55;2.25;;;;;;;;;;5023218;28;20026;-73
2022/07/16 03:06:07;;;;;;;5.05;2.60;;;;;;;;;;5004450;28;20037;-73
2022/07/16 03:08:33;;;;;;;5.72;2.38;;;;;;;;;;5009471;28;20030;-73
2022/07/16 03:10:59;;;;;;;6.78;2.42;;;;;;;;;;5008296;28;20048;-73
2022/07/16 03:13:24;;;;;;;4.38;2.50;;;;;;;;;;5007602;28;20092;-73
2022/07/16 03:15:49;;;;;;;4.55;2.63;;;;;;;;;;5011737;28;20029;-73
2022/07/16 03:18:15;;;;;;;4.38;2.45;;;;;;;;;;5006717;28;20390;-72
2022/07/16 03:20:40;;;;;;;4.00;2.55;;;;;;;;;;5005025;28;20084;-74
2022/07/16 03:23:06;;;;;;;4.30;2.90;;;;;;;;;;5002478;28;20022;-73
2022/07/16 03:25:31;;;;;;;5.53;3.03;;;;;;;;;;5006873;28;20117;-73
2022/07/16 03:27:57;;;;;;;5.70;2.80;;;;;;;;;;5009057;28;20029;-72
2022/07/16 03:30:22;;;;;;;6.32;3.25;;;;;;;;;;5004732;28;20072;-73
2022/07/16 03:32:48;;;;;;;4.78;3.00;;;;;;;;;;5000474;28;20037;-74
2022/07/16 03:35:13;;;;;;;4.72;3.05;;;;;;;;;;5004255;28;20418;-73
2022/07/16 03:40:25;;;;;;;6.30;3.60;;;;;;;;;;5007451;28;20036;-73
2022/07/16 03:42:51;;;;;;;5.00;3.25;;;;;;;;;;5009079;28;20026;-73
2022/07/16 03:45:16;;;;;;;7.82;3.25;;;;;;;;;;5011392;28;20076;-72
2022/07/16 03:47:41;;;;;;;6.13;3.58;;;;;;;;;;5007626;28;20029;-73
2022/07/16 03:50:07;;;;;;;4.93;3.13;;;;;;;;;;5008599;28;20089;-72
2022/07/16 03:52:32;;;;;;;5.28;3.25;;;;;;;;;;5007161;28;20044;-73
2022/07/16 03:54:58;;;;;;;5.72;3.90;;;;;;;;;;5009794;28;20022;-73
2022/07/16 03:57:23;;;;;;;5.70;3.85;;;;;;;;;;5001596;28;20076;-73
2022/07/16 03:59:49;;;;;;;5.35;3.70;;;;;;;;;;5005669;28;20083;-73
2022/07/16 04:02:14;;;;;;;4.68;3.40;;;;;;;;;;5006458;28;20021;-72
2022/07/16 04:04:39;;;;;;;5.72;3.67;;;;;;;;;;5004884;28;20470;-74
2022/07/16 04:07:05;;;;;;;5.63;3.40;;;;;;;;;;5000938;28;20037;-73
2022/07/16 04:09:30;;;;;;;6.68;3.58;;;;;;;;;;5006351;28;20079;-74
2022/07/16 04:11:55;;;;;;;5.65;3.17;;;;;;;;;;5005895;28;20030;-73
2022/07/16 04:14:21;;;;;;;5.13;3.22;;;;;;;;;;5005397;28;20026;-73
2022/07/16 04:16:47;;;;;;;5.20;3.30;;;;;;;;;;5006025;28;20041;-72
2022/07/16 04:19:12;;;;;;;7.03;3.60;;;;;;;;;;5008789;28;20033;-73
2022/07/16 04:21:37;;;;;;;4.82;3.28;;;;;;;;;;5001703;28;20056;-73
2022/07/16 04:24:03;;;;;;;7.05;3.38;;;;;;;;;;5005709;28;20057;-72
2022/07/16 04:26:28;;;;;;;4.40;3.00;;;;;;;;;;5004065;28;20468;-73
2022/07/16 04:28:54;;;;;;;5.22;3.33;;;;;;;;;;5003725;28;20026;-73
2022/07/16 04:31:19;;;;;;;5.50;3.40;;;;;;;;;;5002727;28;20072;-73
2022/07/16 04:33:45;;;;;;;4.57;2.97;;;;;;;;;;5006544;28;20042;-73
2022/07/16 04:36:11;;;;;;;4.60;3.10;;;;;;;;;;5004857;28;20033;-73
2022/07/16 04:38:36;;;;;;;6.35;3.25;;;;;;;;;;5006774;28;20084;-72
2022/07/16 04:41:02;;;;;;;4.63;3.33;;;;;;;;;;5004952;28;20038;-72
2022/07/16 04:43:27;;;;;;;5.22;3.45;;;;;;;;;;5020580;28;20501;-73
2022/07/16 04:45:53;;;;;;;7.20;3.17;;;;;;;;;;5014149;28;20038;-73
2022/07/16 04:48:18;;;;;;;5.68;2.83;;;;;;;;;;5009895;28;20470;-73
2022/07/16 04:50:44;;;;;;;5.75;2.97;;;;;;;;;;5002776;28;21258;-73
2022/07/16 04:53:09;;;;;;;7.47;3.40;;;;;;;;;;5006142;28;20025;-73
2022/07/16 04:55:35;;;;;;;4.78;3.00;;;;;;;;;;5004107;28;20068;-74
2022/07/16 04:58:00;;;;;;;6.15;3.30;;;;;;;;;;5007487;28;20034;-72
2022/07/16 05:00:26;;;;;;;5.70;3.22;;;;;;;;;;5003767;28;20473;-72
2022/07/16 05:02:58;;;;;;;6.15;3.15;;;;;;;;;;5002594;28;20034;-73
2022/07/16 05:05:29;;;;;;;6.43;3.00;;;;;;;;;;5002353;28;20042;-73
2022/07/16 05:07:55;;;;;;;5.07;2.70;;;;;;;;;;5006012;28;20397;-73
2022/07/16 05:10:20;;;;;;;4.80;2.63;;;;;;;;;;5005181;28;20033;-74
2022/07/16 05:12:46;;;;;;;3.42;2.00;;;;;;;;;;5004897;28;20029;-73
2022/07/16 05:15:12;;;;;;;4.05;2.20;;;;;;;;;;5005140;28;20105;-73
2022/07/16 05:17:37;;;;;;;4.45;2.10;;;;;;;;;;5003461;28;20040;-73
2022/07/16 05:20:03;;;;;;;5.28;2.15;;;;;;;;;;4998129;28;20030;-73
2022/07/16 05:22:30;;;;;;;5.13;2.50;;;;;;;;;;4999207;28;20030;-73
2022/07/16 05:24:55;;;;;;;3.78;2.17;;;;;;;;;;5004949;28;20026;-73
2022/07/16 05:27:21;;;;;;;3.83;2.00;;;;;;;;;;5001132;28;20088;-72
2022/07/16 05:29:46;;;;;;;5.07;2.60;;;;;;;;;;5005804;28;21370;-73
2022/07/16 05:32:12;;;;;;;3.78;2.08;;;;;;;;;;5002496;28;20038;-74
2022/07/16 05:34:37;;;;;;;4.18;2.00;;;;;;;;;;5003013;28;20042;-73
2022/07/16 05:37:02;;;;;;;5.05;2.22;;;;;;;;;;5009144;28;20033;-74
2022/07/16 05:39:28;;;;;;;3.88;2.10;;;;;;;;;;5007807;28;20474;-73
2022/07/16 05:41:53;;;;;;;5.35;2.30;;;;;;;;;;5005322;28;20469;-73
2022/07/16 05:44:18;;;;;;;5.05;1.80;;;;;;;;;;5005090;28;20036;-73
2022/07/16 05:46:44;;;;;;;4.38;1.95;;;;;;;;;;5001487;28;20041;-74
2022/07/16 05:49:09;;;;;;;3.42;1.52;;;;;;;;;;5000227;28;20038;-73
2022/07/16 05:51:35;;;;;;;4.32;1.50;;;;;;;;;;5002078;28;20057;-73
2022/07/16 05:54:00;;;;;;;3.88;1.30;;;;;;;;;;5004790;28;20030;-73
2022/07/16 05:56:25;;;;;;;2.75;1.30;;;;;;;;;;4997888;28;20541;-73
2022/07/16 05:58:51;;;;;;;4.32;1.33;;;;;;;;;;5002593;28;20042;-73
2022/07/16 06:01:16;;;;;;;3.10;1.30;;;;;;;;;;5003400;28;20037;-73
2022/07/16 06:03:42;;;;;;;3.55;1.27;;;;;;;;;;5002710;28;20121;-73
2022/07/16 06:06:07;;;;;;;2.05;1.13;;;;;;;;;;5001675;28;20038;-73
2022/07/16 06:08:33;;;;;;;1.73;1.00;;;;;;;;;;5002716;28;20084;-73
2022/07/16 06:10:59;;;;;;;2.22;1.10;;;;;;;;;;5005341;28;20030;-73
2022/07/16 06:13:24;;;;;;;2.53;0.88;;;;;;;;;;5006771;28;20022;-74
2022/07/16 06:15:50;;;;;;;2.50;1.08;;;;;;;;;;5002043;28;20429;-72
2022/07/16 06:18:16;;;;;;;2.17;1.08;;;;;;;;;;5003135;28;20030;-72
2022/07/16 06:20:41;;;;;;;2.33;0.90;;;;;;;;;;5001577;28;20153;-72
2022/07/16 06:23:06;;;;;;;2.35;1.10;;;;;;;;;;5001821;28;20394;-73
2022/07/16 06:25:32;;;;;;;1.90;0.95;;;;;;;;;;5008373;28;20052;-72
2022/07/16 06:27:57;;;;;;;1.60;1.00;;;;;;;;;;5004724;28;20059;-73
2022/07/16 06:30:23;;;;;;;3.53;1.00;;;;;;;;;;5006222;28;20049;-73
2022/07/16 06:32:48;;;;;;;2.95;0.95;;;;;;;;;;5007477;28;20405;-72
2022/07/16 06:35:14;;;;;;;1.67;0.80;;;;;;;;;;5009152;28;20037;-72
2022/07/16 06:37:39;;;;;;;1.48;0.80;;;;;;;;;;5003018;28;20026;-72
2022/07/16 06:40:05;;;;;;;2.50;0.90;;;;;;;;;;5006379;28;20044;-73
2022/07/16 06:42:31;;;;;;;2.72;1.00;;;;;;;;;;5002447;28;20022;-73
2022/07/16 06:44:57;;;;;;;2.80;0.90;;;;;;;;;;5006520;28;20025;-72
2022/07/16 06:47:22;;;;;;;4.88;0.93;;;;;;;;;;5005537;28;20048;-73
2022/07/16 06:49:47;;;;;;;2.65;0.82;;;;;;;;;;5005911;28;20040;-74
2022/07/16 06:52:13;;;;;;;2.15;0.95;;;;;;;;;;5001941;28;20474;-73
2022/07/16 06:54:38;;;;;;;6.28;0.90;;;;;;;;;;5003523;28;20128;-72
2022/07/16 06:57:03;;;;;;;3.60;0.90;;;;;;;;;;4999486;28;20033;-73
2022/07/16 06:59:29;;;;;;;1.88;0.77;;;;;;;;;;5003545;28;20032;-73
2022/07/16 07:01:54;;;;;;;1.58;0.80;;;;;;;;;;5009940;28;20084;-73
2022/07/16 07:04:20;;;;;;;1.73;0.80;;;;;;;;;;5011418;28;20068;-73
2022/07/16 07:06:46;;;;;;;2.25;0.80;;;;;;;;;;5003842;28;20426;-72
2022/07/16 07:09:11;;;;;;;2.78;0.80;;;;;;;;;;5010265;28;20041;-72
2022/07/16 07:11:37;;;;;;;3.40;0.82;;;;;;;;;;5006044;28;20635;-73
2022/07/16 07:14:03;;;;;;;1.27;0.70;;;;;;;;;;5011216;28;20096;-72
2022/07/16 07:16:28;;;;;;;2.35;1.20;;;;;;;;;;5001711;28;20026;-73
2022/07/16 07:18:54;;;;;;;1.70;0.68;;;;;;;;;;5006849;28;20379;-73
2022/07/16 07:21:19;;;;;;;1.77;0.73;;;;;;;;;;5002974;28;20145;-73
2022/07/16 07:23:45;;;;;;;2.70;0.70;;;;;;;;;;5008345;28;20051;-73
2022/07/16 07:26:10;;;;;;;3.00;0.77;;;;;;;;;;5008587;28;20537;-72
2022/07/16 07:28:35;;;;;;;2.38;0.75;;;;;;;;;;5008668;28;20529;-74
2022/07/16 07:31:01;;;;;;;2.20;0.73;;;;;;;;;;5007154;28;20041;-73
2022/07/16 07:33:26;;;;;;;2.13;0.95;;;;;;;;;;5008021;28;20368;-72
2022/07/16 07:35:53;;;;;;;3.05;0.85;;;;;;;;;;5006351;28;21791;-72
2022/07/16 07:38:19;;;;;;;1.63;0.80;;;;;;;;;;5004169;28;20122;-73
2022/07/16 07:40:45;;;;;;;2.65;0.80;;;;;;;;;;5007155;28;21732;-75
2022/07/16 07:43:10;;;;;;;3.03;0.90;;;;;;;;;;5008120;28;20450;-74
2022/07/16 07:45:36;;;;;;;3.65;0.90;;;;;;;;;;5006844;28;20076;-75
2022/07/16 07:48:01;;;;;;;2.75;0.93;;;;;;;;;;5004425;28;20120;-73
2022/07/16 07:50:27;;;;;;;2.38;0.85;;;;;;;;;;5010535;28;20029;-72
2022/07/16 07:52:52;;;;;;;1.77;0.80;;;;;;;;;;5005297;28;20045;-73
2022/07/16 07:55:19;;;;;;;3.72;0.93;;;;;;;;;;5002460;28;20643;-73
2022/07/16 07:57:44;;;;;;;1.45;0.80;;;;;;;;;;5009009;28;20115;-72
2022/07/16 08:00:10;;;;;;;2.22;0.90;;;;;;;;;;5011372;28;20118;-75
2022/07/16 08:02:35;;;;;;;3.47;1.10;;;;;;;;;;5004443;28;20078;-72
2022/07/16 08:05:01;;;;;;;3.78;0.93;;;;;;;;;;5005409;28;20030;-75
2022/07/16 08:07:27;;;;;;;2.88;0.73;;;;;;;;;;5009544;28;20478;-72
2022/07/16 08:09:52;;;;;;;1.23;0.55;;;;;;;;;;5006604;28;20022;-73
2022/07/16 08:12:17;;;;;;;2.20;0.80;;;;;;;;;;5002719;28;20033;-76
2022/07/16 08:14:43;;;;;;;3.10;0.75;;;;;;;;;;5006679;28;20474;-72
2022/07/16 08:17:08;;;;;;;1.80;0.60;;;;;;;;;;5001935;28;20088;-75
2022/07/16 08:19:34;;;;;;;1.63;0.60;;;;;;;;;;5008415;28;20052;-73
2022/07/16 08:22:01;;;;;;;5.25;0.93;;;;;;;;;;5007987;28;20030;-72
2022/07/16 08:27:10;;;;;;;2.40;0.70;;;;;;;;;;5005025;28;20049;-74
2022/07/16 08:29:36;;;;;;;2.47;0.60;;;;;;;;;;5003641;28;20054;-74
2022/07/16 08:32:01;;;;;;;1.67;0.65;;;;;;;;;;5004005;28;20047;-74
2022/07/16 08:34:27;;;;;;;1.58;0.60;;;;;;;;;;5004418;28;20053;-75
2022/07/16 08:36:52;;;;;;;3.58;0.68;;;;;;;;;;5002628;28;20712;-73
2022/07/16 08:39:18;;;;;;;1.55;0.50;;;;;;;;;;5000432;28;20029;-73
2022/07/16 08:41:43;;;;;;;1.92;0.70;;;;;;;;;;4997673;28;20037;-73
2022/07/16 08:44:13;;;;;;;2.10;0.65;;;;;;;;;;5000059;28;20034;-75
2022/07/16 08:46:38;;;;;;;2.13;0.80;;;;;;;;;;5003743;28;20030;-73
2022/07/16 08:49:04;;;;;;;1.52;0.50;;;;;;;;;;5001305;28;20045;-73
2022/07/16 08:51:35;;;;;;;2.55;0.60;;;;;;;;;;5000070;28;20065;-72
2022/07/16 08:54:06;;;;;;;0.98;0.50;;;;;;;;;;5003160;28;20026;-72
2022/07/16 08:56:33;;;;;;;2.10;0.70;;;;;;;;;;5000902;28;20044;-72
2022/07/16 08:59:00;;;;;;;3.10;0.80;;;;;;;;;;5002418;28;20041;-74
2022/07/16 09:01:29;;;;;;;0.85;0.50;;;;;;;;;;4995248;28;20049;-73
2022/07/16 09:03:58;;;;;;;4.38;0.80;;;;;;;;;;5002040;28;20030;-72
2022/07/16 09:06:24;;;;;;;3.33;0.95;;;;;;;;;;5006787;28;20108;-73
2022/07/16 09:08:50;;;;;;;2.28;0.60;;;;;;;;;;5010468;28;20029;-75
2022/07/16 09:11:24;;;;;;;1.23;0.52;;;;;;;;;;5001546;28;20042;-73
2022/07/16 09:14:11;;;;;;;1.73;1.05;;;;;;;;;;5001611;28;20494;-72
2022/07/16 09:16:47;;;;;;;2.88;0.80;;;;;;;;;;5006099;28;20040;-73
2022/07/16 09:19:21;;;;;;;2.20;0.80;;;;;;;;;;5000242;28;20038;-73
2022/07/16 09:22:10;;;;;;;2.38;0.93;;;;;;;;;;5004349;28;20033;-73
2022/07/16 09:24:48;;;;;;;2.00;0.80;;;;;;;;;;4998932;28;20486;-74
2022/07/16 09:27:24;;;;;;;1.92;0.70;;;;;;;;;;5003746;28;20029;-73
2022/07/16 09:29:53;;;;;;;2.20;0.70;;;;;;;;;;5003758;28;20059;-72
2022/07/16 09:32:36;;;;;;;1.70;0.68;;;;;;;;;;5000854;28;20596;-74
2022/07/16 09:35:20;;;;;;;3.72;0.82;;;;;;;;;;4996670;28;20041;-73
2022/07/16 09:38:10;;;;;;;2.33;0.82;;;;;;;;;;5003736;28;20068;-74
2022/07/16 09:40:35;;;;;;;1.00;0.70;;;;;;;;;;4993241;28;20746;-73
2022/07/16 09:43:03;;;;;;;2.75;0.82;;;;;;;;;;4991151;28;20026;-73
2022/07/16 09:45:29;;;;;;;2.22;0.70;;;;;;;;;;4995631;28;21766;-74
2022/07/16 09:47:54;;;;;;;1.33;0.65;;;;;;;;;;4990872;28;20110;-72
2022/07/16 09:50:21;;;;;;;1.85;0.73;;;;;;;;;;4994790;28;20041;-74
2022/07/16 09:52:46;;;;;;;3.47;0.98;;;;;;;;;;4999355;28;20049;-74
2022/07/16 09:55:11;;;;;;;2.15;0.75;;;;;;;;;;4995149;28;20197;-73
2022/07/16 09:57:37;;;;;;;1.70;0.68;;;;;;;;;;4991229;28;20072;-73
2022/07/16 10:00:08;;;;;;;1.10;0.60;;;;;;;;;;4991940;28;20088;-73
2022/07/16 10:02:34;;;;;;;1.60;0.68;;;;;;;;;;4993902;28;20557;-73
2022/07/16 10:05:00;;;;;;;2.13;0.70;;;;;;;;;;4988122;28;20088;-74
2022/07/16 10:07:26;;;;;;;2.22;0.70;;;;;;;;;;4991427;28;20038;-73
2022/07/16 10:09:51;;;;;;;2.22;0.70;;;;;;;;;;4992922;28;20042;-74
2022/07/16 10:12:20;;;;;;;2.10;0.80;;;;;;;;;;4993782;28;20500;-73
2022/07/16 10:14:48;;;;;;;2.63;0.80;;;;;;;;;;4986099;28;20038;-72
2022/07/16 10:17:20;;;;;;;2.72;0.75;;;;;;;;;;4992612;28;20041;-73
2022/07/16 10:19:56;;;;;;;2.60;0.70;;;;;;;;;;4989913;28;20033;-73
2022/07/16 10:22:31;;;;;;;3.95;0.73;;;;;;;;;;4991194;28;20080;-73
2022/07/16 10:24:57;;;;;;;2.22;1.02;;;;;;;;;;4996919;28;20512;-74
2022/07/16 10:27:30;;;;;;;3.88;0.68;;;;;;;;;;4991930;28;20030;-73
2022/07/16 10:30:27;;;;;;;1.45;0.63;;;;;;;;;;4993673;28;20464;-73
2022/07/16 10:33:17;;;;;;;2.15;0.75;;;;;;;;;;4991637;28;20063;-73
2022/07/16 10:35:44;;;;;;;1.95;0.90;;;;;;;;;;4990064;28;20025;-73
2022/07/16 10:38:18;;;;;;;1.23;0.65;;;;;;;;;;4993569;28;20033;-73
2022/07/16 10:40:45;;;;;;;2.63;0.70;;;;;;;;;;4988592;28;20099;-73
2022/07/16 10:43:21;;;;;;;2.40;0.70;;;;;;;;;;4991714;28;20882;-73
2022/07/16 10:45:59;;;;;;;1.92;0.73;;;;;;;;;;4995849;28;20025;-73
2022/07/16 10:48:49;;;;;;;1.40;0.65;;;;;;;;;;4992602;28;20131;-73
2022/07/16 10:51:23;;;;;;;1.30;0.50;;;;;;;;;;4984398;28;20494;-73
2022/07/16 10:53:57;;;;;;;2.08;0.60;;;;;;;;;;4992546;28;20030;-73
2022/07/16 10:56:39;;;;;;;2.88;0.73;;;;;;;;;;4993583;28;20065;-73
2022/07/16 10:59:10;;;;;;;3.38;0.98;;;;;;;;;;4993823;28;20359;-73
2022/07/16 11:01:37;;;;;;;2.97;0.80;;;;;;;;;;4992563;28;20482;-72
2022/07/16 11:04:03;;;;;;;2.22;0.68;;;;;;;;;;4995485;28;20117;-73
2022/07/16 11:06:29;;;;;;;1.63;0.70;;;;;;;;;;5001957;28;20030;-74
2022/07/16 11:08:56;;;;;;;1.85;0.55;;;;;;;;;;4997502;28;20057;-73
2022/07/16 11:11:22;;;;;;;2.05;0.68;;;;;;;;;;4993718;28;20117;-73
2022/07/16 11:13:48;;;;;;;2.45;0.70;;;;;;;;;;4993490;28;21987;-72
2022/07/16 11:16:14;;;;;;;1.45;0.68;;;;;;;;;;4993842;28;20128;-72
2022/07/16 11:18:40;;;;;;;0.70;0.50;;;;;;;;;;5000280;28;20029;-74
2022/07/16 11:21:06;;;;;;;1.60;0.70;;;;;;;;;;5003257;28;20022;-73
2022/07/16 11:23:55;;;;;;;2.50;0.60;;;;;;;;;;4993515;28;20491;-76
2022/07/16 11:26:21;;;;;;;2.35;0.75;;;;;;;;;;4993812;28;20107;-73
2022/07/16 11:28:58;;;;;;;1.20;0.63;;;;;;;;;;4999580;28;20059;-74
2022/07/16 11:31:33;;;;;;;2.53;0.60;;;;;;;;;;4999179;28;20065;-74
2022/07/16 11:34:00;;;;;;;2.22;0.60;;;;;;;;;;4995352;28;20066;-73
2022/07/16 11:36:28;;;;;;;2.30;0.70;;;;;;;;;;4998884;28;20044;-72
2022/07/16 11:39:02;;;;;;;4.32;0.80;;;;;;;;;;5006611;28;20668;-75
2022/07/16 11:41:28;;;;;;;2.47;0.77;;;;;;;;;;5005915;28;20486;-72
2022/07/16 11:43:54;;;;;;;3.13;0.75;;;;;;;;;;5002041;28;20031;-73
2022/07/16 11:46:24;;;;;;;2.13;0.70;;;;;;;;;;5006982;28;20018;-73
2022/07/16 11:48:50;;;;;;;4.63;0.85;;;;;;;;;;5009309;28;20037;-72
2022/07/16 11:51:15;;;;;;;1.20;0.63;;;;;;;;;;5008977;28;20030;-72
2022/07/16 11:53:41;;;;;;;3.15;0.68;;;;;;;;;;5006828;28;20339;-75
2022/07/16 11:56:06;;;;;;;1.73;0.70;;;;;;;;;;5005340;28;20035;-74
2022/07/16 11:58:33;;;;;;;1.67;0.60;;;;;;;;;;5004256;28;20037;-75
2022/07/16 12:00:58;;;;;;;4.05;0.75;;;;;;;;;;5006973;28;20030;-73
2022/07/16 12:03:24;;;;;;;1.45;0.60;;;;;;;;;;5012010;28;20045;-74
2022/07/16 12:06:04;;;;;;;1.85;0.60;;;;;;;;;;4993414;28;20513;-73
2022/07/16 12:08:30;;;;;;;3.05;0.70;;;;;;;;;;5003591;28;20036;-72
2022/07/16 12:11:05;;;;;;;2.03;0.70;;;;;;;;;;5005564;28;20489;-73
2022/07/16 12:13:31;;;;;;;2.63;0.70;;;;;;;;;;5005332;28;20026;-73
2022/07/16 12:15:59;;;;;;;3.35;0.70;;;;;;;;;;5007135;28;20040;-73
2022/07/16 12:18:25;;;;;;;2.47;0.70;;;;;;;;;;5001694;28;20506;-72
2022/07/16 12:20:51;;;;;;;1.95;0.70;;;;;;;;;;5002830;28;20107;-74
2022/07/16 12:23:34;;;;;;;2.92;0.70;;;;;;;;;;5006895;28;20493;-74
2022/07/16 12:26:01;;;;;;;4.03;0.60;;;;;;;;;;5006154;28;20022;-72
2022/07/16 12:28:27;;;;;;;2.13;0.70;;;;;;;;;;5000763;28;21027;-74
2022/07/16 12:30:58;;;;;;;3.67;1.17;;;;;;;;;;4991515;28;20040;-74
2022/07/16 12:33:27;;;;;;;1.38;0.60;;;;;;;;;;4996505;28;20120;-74
2022/07/16 12:36:01;;;;;;;3.65;0.70;;;;;;;;;;4994136;28;20375;-73
2022/07/16 12:38:46;;;;;;;1.77;0.60;;;;;;;;;;4992720;28;20065;-72
2022/07/16 12:41:33;;;;;;;2.08;0.70;;;;;;;;;;4988999;28;20026;-74
2022/07/16 12:44:04;;;;;;;2.17;0.50;;;;;;;;;;4988913;28;20132;-73
2022/07/16 12:46:32;;;;;;;1.90;0.70;;;;;;;;;;4995118;28;20056;-74
2022/07/16 12:48:59;;;;;;;3.47;1.20;;;;;;;;;;4996028;28;20030;-73
2022/07/16 12:51:29;;;;;;;1.67;0.80;;;;;;;;;;4992524;28;20504;-74
2022/07/16 12:53:56;;;;;;;0.93;0.50;;;;;;;;;;5003235;28;20030;-72
2022/07/16 12:59:06;;;;;;;3.17;0.73;;;;;;;;;;5001303;28;20076;-73
2022/07/16 13:01:32;;;;;;;3.63;0.85;;;;;;;;;;4991660;28;20026;-74
2022/07/16 13:03:58;;;;;;;2.28;0.70;;;;;;;;;;4998122;28;20028;-74
2022/07/16 13:06:24;;;;;;;2.35;0.77;;;;;;;;;;5004513;28;20084;-73
2022/07/16 13:08:49;;;;;;;1.63;0.65;;;;;;;;;;4994678;28;20041;-74
2022/07/16 13:11:17;;;;;;;1.77;0.65;;;;;;;;;;4992510;28;20034;-73
2022/07/16 13:13:43;;;;;;;2.33;0.70;;;;;;;;;;4992183;28;20191;-73
2022/07/16 13:16:09;;;;;;;2.03;0.65;;;;;;;;;;4999141;28;20113;-73
2022/07/16 13:18:36;;;;;;;3.13;0.60;;;;;;;;;;4999755;28;20033;-74
2022/07/16 13:21:02;;;;;;;2.70;0.60;;;;;;;;;;4995731;28;20037;-74
2022/07/16 13:23:28;;;;;;;3.38;0.90;;;;;;;;;;4987616;28;20025;-74
2022/07/16 13:25:54;;;;;;;1.55;0.60;;;;;;;;;;4994381;28;20487;-74
2022/07/16 13:28:19;;;;;;;1.95;0.77;;;;;;;;;;4997073;28;20030;-73
2022/07/16 13:30:46;;;;;;;2.80;0.90;;;;;;;;;;4993703;28;20037;-73
2022/07/16 13:33:12;;;;;;;2.05;0.77;;;;;;;;;;4990834;28;20042;-73
2022/07/16 13:35:38;;;;;;;2.13;0.55;;;;;;;;;;4996966;28;20025;-73
2022/07/16 13:38:04;;;;;;;3.40;0.70;;;;;;;;;;4998614;28;20069;-74
2022/07/16 13:40:29;;;;;;;1.30;0.57;;;;;;;;;;4990824;28;20521;-73
2022/07/16 13:42:54;;;;;;;1.73;0.70;;;;;;;;;;4998407;28;20036;-74
2022/07/16 13:45:20;;;;;;;2.58;0.73;;;;;;;;;;4998210;28;20030;-73
2022/07/16 13:47:45;;;;;;;2.85;0.98;;;;;;;;;;4999285;28;20057;-72
2022/07/16 13:50:11;;;;;;;2.97;1.10;;;;;;;;;;4998777;28;20038;-74
2022/07/16 13:52:37;;;;;;;3.20;0.60;;;;;;;;;;4998878;28;20508;-73
2022/07/16 13:55:02;;;;;;;2.95;0.68;;;;;;;;;;4998325;28;20445;-73
2022/07/16 14:00:12;;;;;;;2.65;0.68;;;;;;;;;;5000344;28;20042;-74
2022/07/16 14:02:38;;;;;;;3.10;0.70;;;;;;;;;;5002075;28;20038;-74
2022/07/16 14:05:04;;;;;;;1.30;0.60;;;;;;;;;;4997777;28;20376;-74
2022/07/16 14:07:29;;;;;;;2.30;0.60;;;;;;;;;;4998041;28;20041;-73
2022/07/16 14:09:54;;;;;;;2.58;0.55;;;;;;;;;;5008487;28;20551;-74
2022/07/16 14:12:20;;;;;;;2.10;0.50;;;;;;;;;;5007353;28;20022;-73
2022/07/16 14:14:46;;;;;;;2.00;0.50;;;;;;;;;;5009720;28;20025;-74
2022/07/16 14:17:12;;;;;;;1.63;0.55;;;;;;;;;;5010099;28;20033;-74
2022/07/16 14:19:37;;;;;;;1.75;0.50;;;;;;;;;;5006707;28;20034;-74
2022/07/16 14:22:03;;;;;;;1.88;0.60;;;;;;;;;;5008730;28;20026;-74
2022/07/16 14:24:28;;;;;;;1.90;0.60;;;;;;;;;;5007203;28;20479;-74
2022/07/16 14:26:54;;;;;;;1.25;0.60;;;;;;;;;;5010536;28;20125;-72
2022/07/16 14:29:19;;;;;;;1.77;0.55;;;;;;;;;;5010041;28;20472;-74
2022/07/16 14:31:44;;;;;;;1.88;0.68;;;;;;;;;;5005811;28;20030;-74
2022/07/16 14:34:10;;;;;;;2.40;0.50;;;;;;;;;;5010355;28;20038;-72
2022/07/16 14:36:35;;;;;;;1.88;0.50;;;;;;;;;;5009297;28;20033;-72
2022/07/16 14:39:01;;;;;;;3.92;0.60;;;;;;;;;;5006953;28;20088;-73
2022/07/16 14:41:26;;;;;;;1.75;0.57;;;;;;;;;;5012892;28;20030;-73
2022/07/16 14:43:51;;;;;;;4.20;0.70;;;;;;;;;;5009048;28;20500;-73
2022/07/16 14:46:18;;;;;;;1.40;0.47;;;;;;;;;;5014781;28;20037;-73
2022/07/16 14:48:44;;;;;;;2.42;0.73;;;;;;;;;;5010804;28;20026;-72
2022/07/16 14:51:10;;;;;;;2.15;0.68;;;;;;;;;;5010748;28;20099;-73
2022/07/16 14:53:36;;;;;;;3.22;0.57;;;;;;;;;;5009136;28;20056;-74
2022/07/16 14:56:02;;;;;;;1.85;0.50;;;;;;;;;;5012985;28;20025;-72
2022/07/16 14:58:28;;;;;;;2.35;0.63;;;;;;;;;;5013165;28;20482;-73